createdAt,value
2022-12-22T00:01:05.435Z,83.31
2022-12-22T00:03:51.113Z,83.41
2022-12-22T00:06:36.676Z,83.02
2022-12-22T00:09:22.513Z,83.51
2022-12-22T00:12:07.703Z,83.30
2022-12-22T00:14:53.477Z,83.23
2022-12-22T00:17:46.796Z,81.33
2022-12-22T00:20:37.652Z,82.88
2022-12-22T00:23:23.341Z,83.29
2022-12-22T00:26:08.770Z,82.77
2022-12-22T00:28:54.896Z,84.08
2022-12-22T00:31:41.087Z,84.07
2022-12-22T00:34:38.724Z,83.61
2022-12-22T00:37:25.822Z,84.13
2022-12-22T00:40:11.004Z,83.50
2022-12-22T00:42:56.235Z,83.07
2022-12-22T00:45:41.771Z,83.31
2022-12-22T00:48:42.136Z,82.88
2022-12-22T00:51:27.888Z,84.29
2022-12-22T00:54:13.180Z,84.15
2022-12-22T00:56:58.452Z,83.88
2022-12-22T00:59:44.648Z,82.91
2022-12-22T01:02:30.121Z,83.19
2022-12-22T01:05:16.049Z,82.74
2022-12-22T01:08:01.238Z,85.47
2022-12-22T01:10:46.199Z,83.87
2022-12-22T01:13:33.091Z,84.80
2022-12-22T01:16:18.783Z,83.04
2022-12-22T01:19:04.209Z,83.09
2022-12-22T01:21:49.675Z,84.03
2022-12-22T01:24:36.763Z,84.19
2022-12-22T01:27:22.838Z,82.37
2022-12-22T01:30:07.993Z,83.87
2022-12-22T01:32:53.068Z,84.55
2022-12-22T01:35:51.472Z,85.13
2022-12-22T01:38:36.674Z,83.92
2022-12-22T01:41:22.792Z,84.45
2022-12-22T01:44:08.410Z,84.67
2022-12-22T01:47:02.141Z,84.32
2022-12-22T01:49:59.895Z,85.33
2022-12-22T01:52:51.509Z,84.00
2022-12-22T01:55:40.245Z,85.43
2022-12-22T01:58:39.296Z,83.32
2022-12-22T02:01:24.555Z,84.63
2022-12-22T02:04:09.785Z,85.58
2022-12-22T02:07:00.431Z,84.44
2022-12-22T02:10:16.829Z,83.60
2022-12-22T02:13:13.125Z,84.60
2022-12-22T02:16:06.272Z,85.01
2022-12-22T02:19:26.926Z,84.91
2022-12-22T02:22:36.728Z,82.38
2022-12-22T02:25:25.991Z,83.26
2022-12-22T02:28:12.231Z,84.25
2022-12-22T02:30:58.379Z,82.34
2022-12-22T02:33:44.083Z,84.94
2022-12-22T02:36:49.538Z,83.44
2022-12-22T02:39:53.359Z,83.51
2022-12-22T02:42:54.132Z,83.66
2022-12-22T02:45:48.864Z,84.67
2022-12-22T02:49:00.343Z,84.67
2022-12-22T02:51:47.978Z,82.03
2022-12-22T02:54:33.533Z,81.02
2022-12-22T02:57:21.727Z,82.90
2022-12-22T03:00:06.874Z,81.82
2022-12-22T03:02:52.328Z,82.52
2022-12-22T03:05:37.529Z,82.24
2022-12-22T03:08:22.596Z,82.97
2022-12-22T03:11:07.754Z,83.56
2022-12-22T03:13:52.947Z,82.31
2022-12-22T03:16:38.240Z,83.24
2022-12-22T03:19:23.459Z,83.26
2022-12-22T03:22:08.706Z,84.41
2022-12-22T03:24:53.826Z,84.10
2022-12-22T03:27:20.362Z,83.95
2022-12-22T03:29:46.785Z,84.28
2022-12-22T03:32:13.287Z,84.48
2022-12-22T03:34:39.726Z,85.73
2022-12-22T03:37:06.183Z,84.56
2022-12-22T03:39:32.644Z,86.51
2022-12-22T03:42:17.651Z,87.17
2022-12-22T03:45:02.798Z,84.78
2022-12-22T03:47:31.142Z,85.90
2022-12-22T03:49:57.614Z,83.92
2022-12-22T03:52:24.162Z,85.15
2022-12-22T03:54:51.323Z,86.04
2022-12-22T03:57:17.786Z,84.46
2022-12-22T03:59:44.239Z,83.49
2022-12-22T04:02:10.880Z,83.31
2022-12-22T04:04:37.397Z,81.93
2022-12-22T04:07:03.851Z,82.47
2022-12-22T04:09:30.325Z,82.34
2022-12-22T04:12:15.422Z,82.26
2022-12-22T04:14:41.917Z,83.24
2022-12-22T04:17:09.747Z,81.76
2022-12-22T04:19:36.196Z,81.12
2022-12-22T04:22:02.735Z,81.88
2022-12-22T04:24:29.289Z,83.90
2022-12-22T04:26:55.790Z,82.98
2022-12-22T04:29:22.251Z,81.95
2022-12-22T04:31:48.749Z,82.85
2022-12-22T04:34:15.322Z,81.71
2022-12-22T04:36:41.772Z,82.82
2022-12-22T04:39:08.246Z,83.30
2022-12-22T04:41:34.699Z,81.01
2022-12-22T04:44:01.187Z,83.07
2022-12-22T04:46:27.789Z,82.42
2022-12-22T04:48:59.641Z,82.28
2022-12-22T04:51:27.016Z,82.65
2022-12-22T04:53:53.550Z,82.15
2022-12-22T04:56:20.020Z,81.86
2022-12-22T04:58:46.533Z,81.26
2022-12-22T05:01:15.810Z,84.06
2022-12-22T05:03:42.675Z,82.77
2022-12-22T05:06:09.283Z,83.45
2022-12-22T05:08:36.062Z,81.27
2022-12-22T05:11:03.015Z,79.56
2022-12-22T05:13:30.960Z,80.24
2022-12-22T05:16:08.882Z,80.30
2022-12-22T05:18:35.784Z,80.20
2022-12-22T05:21:04.542Z,80.68
2022-12-22T05:23:30.993Z,81.25
2022-12-22T05:25:57.522Z,82.58
2022-12-22T05:28:24.000Z,81.85
2022-12-22T05:30:50.475Z,82.54
2022-12-22T05:33:17.123Z,83.63
2022-12-22T05:35:43.614Z,85.79
2022-12-22T05:38:10.085Z,84.49
2022-12-22T05:40:36.521Z,85.36
2022-12-22T05:43:03.089Z,84.78
2022-12-22T05:45:29.525Z,83.10
2022-12-22T05:47:56.041Z,83.09
2022-12-22T05:50:24.573Z,83.52
2022-12-22T05:52:51.008Z,83.41
2022-12-22T05:55:17.601Z,82.57
2022-12-22T05:57:44.118Z,82.83
2022-12-22T06:00:13.822Z,83.81
2022-12-22T06:02:41.605Z,85.06
2022-12-22T06:05:08.625Z,85.85
2022-12-22T06:07:35.073Z,86.57
2022-12-22T06:10:07.856Z,85.04
2022-12-22T06:12:38.096Z,85.10
2022-12-22T06:15:05.670Z,83.73
2022-12-22T06:17:32.123Z,83.83
2022-12-22T06:19:58.569Z,83.56
2022-12-22T06:22:25.035Z,84.23
2022-12-22T06:24:51.512Z,82.99
2022-12-22T06:27:17.954Z,84.67
2022-12-22T06:29:44.425Z,84.15
2022-12-22T06:32:10.848Z,85.17
2022-12-22T06:34:37.324Z,85.00
2022-12-22T06:37:03.792Z,84.55
2022-12-22T06:39:30.420Z,83.97
2022-12-22T06:42:15.327Z,83.64
2022-12-22T06:44:41.904Z,82.79
2022-12-22T06:47:08.432Z,84.81
2022-12-22T06:49:34.908Z,82.74
2022-12-22T06:52:01.359Z,83.23
2022-12-22T06:54:27.838Z,83.71
2022-12-22T06:56:54.331Z,84.32
2022-12-22T06:59:20.918Z,84.28
2022-12-22T07:01:47.477Z,84.34
2022-12-22T07:04:19.835Z,83.69
2022-12-22T07:06:47.653Z,85.49
2022-12-22T07:09:14.131Z,85.13
2022-12-22T07:11:40.729Z,84.71
2022-12-22T07:14:07.333Z,84.30
2022-12-22T07:16:34.472Z,83.99
2022-12-22T07:19:01.034Z,84.02
2022-12-22T07:21:27.484Z,84.38
2022-12-22T07:23:53.942Z,84.57
2022-12-22T07:26:20.436Z,85.00
2022-12-22T07:28:46.908Z,85.13
2022-12-22T07:31:14.320Z,84.59
2022-12-22T07:33:40.909Z,83.57
2022-12-22T07:36:12.479Z,83.87
2022-12-22T07:38:41.027Z,83.23
2022-12-22T07:41:28.321Z,83.01
2022-12-22T07:43:56.481Z,82.99
2022-12-22T07:46:24.010Z,81.83
2022-12-22T07:49:09.182Z,79.89
2022-12-22T07:51:37.190Z,79.73
2022-12-22T07:54:10.855Z,79.61
2022-12-22T07:56:37.538Z,80.43
2022-12-22T07:59:04.057Z,79.40
2022-12-22T08:01:30.600Z,80.42
2022-12-22T08:03:58.201Z,79.77
2022-12-22T08:06:25.126Z,81.08
2022-12-22T08:08:52.075Z,80.74
2022-12-22T08:11:18.803Z,80.47
2022-12-22T08:13:46.548Z,80.04
2022-12-22T08:16:14.111Z,81.09
2022-12-22T08:18:41.000Z,79.82
2022-12-22T08:21:08.138Z,80.09
2022-12-22T08:23:35.444Z,80.73
2022-12-22T08:26:07.806Z,81.90
2022-12-22T08:28:37.521Z,80.82
2022-12-22T08:31:04.247Z,80.76
2022-12-22T08:33:30.846Z,82.09
2022-12-22T08:36:04.283Z,79.54
2022-12-22T08:38:34.584Z,79.68
2022-12-22T08:41:01.056Z,80.88
2022-12-22T08:43:29.029Z,80.05
2022-12-22T08:45:55.511Z,80.42
2022-12-22T08:48:21.954Z,79.57
2022-12-22T08:50:48.409Z,80.72
2022-12-22T08:53:45.309Z,81.21
2022-12-22T08:56:01.313Z,80.54
2022-12-22T08:58:27.751Z,78.89
2022-12-22T09:00:54.253Z,79.39
2022-12-22T09:03:20.953Z,81.14
2022-12-22T09:05:47.505Z,81.00
2022-12-22T09:08:13.987Z,79.25
2022-12-22T09:10:43.299Z,79.63
2022-12-22T09:13:09.759Z,80.71
2022-12-22T09:15:37.098Z,80.26
2022-12-22T09:18:03.596Z,83.38
2022-12-22T09:20:30.070Z,82.09
2022-12-22T09:22:56.514Z,83.09
2022-12-22T09:25:22.995Z,82.57
2022-12-22T09:27:49.429Z,82.17
2022-12-22T09:30:16.017Z,81.58
2022-12-22T09:32:42.497Z,81.54
2022-12-22T09:35:09.235Z,80.45
2022-12-22T09:37:35.694Z,80.92
2022-12-22T09:40:02.189Z,80.84
2022-12-22T09:42:30.178Z,81.12
2022-12-22T09:44:56.707Z,81.62
2022-12-22T09:47:30.799Z,82.08
2022-12-22T09:49:58.142Z,82.92
2022-12-22T09:52:39.497Z,82.22
2022-12-22T09:55:26.218Z,83.47
2022-12-22T09:57:56.049Z,84.01
2022-12-22T10:00:28.297Z,80.88
2022-12-22T10:03:19.790Z,84.70
2022-12-22T10:05:55.993Z,83.58
2022-12-22T10:08:29.143Z,82.28
2022-12-22T10:10:56.750Z,80.53
2022-12-22T10:13:23.222Z,78.62
2022-12-22T10:15:49.793Z,80.20
2022-12-22T10:18:18.589Z,79.50
2022-12-22T10:20:47.364Z,79.13
2022-12-22T10:23:29.911Z,80.30
2022-12-22T10:28:52.022Z,79.75
2022-12-22T10:31:21.943Z,79.35
2022-12-22T10:33:51.243Z,79.40
2022-12-22T10:36:29.284Z,79.67
2022-12-22T10:38:59.671Z,79.92
2022-12-22T10:41:29.063Z,79.31
2022-12-22T10:43:57.960Z,80.05
2022-12-22T10:46:33.429Z,80.87
2022-12-22T10:49:13.640Z,80.22
2022-12-22T10:51:41.325Z,80.45
2022-12-22T10:54:07.764Z,81.87
2022-12-22T10:56:34.749Z,81.33
2022-12-22T10:59:01.152Z,78.75
2022-12-22T11:01:33.194Z,83.11
2022-12-22T11:04:25.978Z,79.98
2022-12-22T11:06:53.718Z,81.29
2022-12-22T11:09:35.933Z,80.31
2022-12-22T11:12:08.737Z,80.59
2022-12-22T11:15:04.470Z,78.76
2022-12-22T11:17:59.797Z,79.85
2022-12-22T11:20:32.258Z,81.68
2022-12-22T11:23:20.733Z,81.64
2022-12-22T11:25:50.198Z,80.76
2022-12-22T11:28:41.506Z,81.59
2022-12-22T11:31:18.076Z,80.44
2022-12-22T11:34:21.064Z,81.26
2022-12-22T11:37:16.058Z,82.59
2022-12-22T11:39:59.074Z,81.15
2022-12-22T11:43:03.103Z,81.38
2022-12-22T11:45:59.886Z,79.57
2022-12-22T11:48:54.979Z,80.26
2022-12-22T11:51:57.404Z,80.23
2022-12-22T11:54:45.178Z,80.73
2022-12-22T11:57:30.310Z,81.70
2022-12-22T12:00:09.148Z,79.08
2022-12-22T12:03:01.124Z,81.70
2022-12-22T12:05:42.835Z,80.45
2022-12-22T12:08:20.257Z,81.84
2022-12-22T12:11:18.349Z,80.17
2022-12-22T12:14:08.433Z,81.49
2022-12-22T12:17:13.422Z,81.14
2022-12-22T12:19:52.867Z,80.77
2022-12-22T12:22:29.506Z,78.93
2022-12-22T12:25:01.867Z,78.94
2022-12-22T12:28:05.299Z,80.63
2022-12-22T12:30:58.743Z,82.24
2022-12-22T12:33:31.237Z,83.35
2022-12-22T12:36:09.035Z,81.47
2022-12-22T12:39:08.409Z,81.47
2022-12-22T12:41:50.095Z,82.28
2022-12-22T12:44:19.348Z,80.76
2022-12-22T12:46:52.392Z,81.80
2022-12-22T12:49:34.358Z,79.57
2022-12-22T12:52:04.868Z,81.38
2022-12-22T12:54:43.682Z,81.75
2022-12-22T12:57:10.119Z,81.45
2022-12-22T12:59:42.807Z,81.04
2022-12-22T13:02:27.991Z,80.64
2022-12-22T13:05:13.375Z,81.30
2022-12-22T13:08:12.383Z,77.51
2022-12-22T13:10:44.731Z,82.38
2022-12-22T13:13:23.434Z,81.72
2022-12-22T13:16:12.367Z,83.22
2022-12-22T13:18:50.858Z,79.28
2022-12-22T13:24:25.137Z,79.70
2022-12-22T13:26:55.226Z,82.69
2022-12-22T13:29:21.740Z,81.28
2022-12-22T13:31:52.192Z,83.06
2022-12-22T13:35:28.968Z,82.83
2022-12-22T13:37:41.817Z,81.61
2022-12-22T13:40:17.150Z,79.41
2022-12-22T13:42:47.856Z,79.52
2022-12-22T13:45:18.991Z,76.89
2022-12-22T13:47:46.702Z,83.46
2022-12-22T13:50:34.759Z,80.27
2022-12-22T13:53:02.556Z,81.38
2022-12-22T13:55:31.063Z,82.91
2022-12-22T13:58:24.726Z,82.41
2022-12-22T14:01:20.855Z,82.87
2022-12-22T14:04:02.302Z,82.90
2022-12-22T14:06:36.159Z,81.59
2022-12-22T14:09:16.926Z,84.17
2022-12-22T14:11:52.067Z,80.98
2022-12-22T14:14:25.568Z,83.83
2022-12-22T14:16:53.775Z,81.38
2022-12-22T14:19:21.682Z,81.90
2022-12-22T14:21:56.196Z,80.84
2022-12-22T14:24:25.521Z,80.82
2022-12-22T14:26:53.510Z,80.79
2022-12-22T14:29:23.169Z,81.96
2022-12-22T14:31:58.861Z,80.91
2022-12-22T14:34:30.901Z,80.53
2022-12-22T14:37:00.830Z,79.47
2022-12-22T14:39:30.896Z,78.16
2022-12-22T14:42:02.316Z,79.34
2022-12-22T14:44:32.264Z,77.48
2022-12-22T14:47:12.519Z,78.37
2022-12-22T14:49:51.251Z,78.81
2022-12-22T14:52:25.075Z,77.08
2022-12-22T14:54:53.562Z,76.58
2022-12-22T14:57:28.211Z,77.45
2022-12-22T15:00:25.501Z,77.65
2022-12-22T15:02:58.464Z,77.41
2022-12-22T15:05:28.038Z,76.78
2022-12-22T15:08:06.872Z,77.88
2022-12-22T15:10:38.754Z,76.71
2022-12-22T15:13:07.412Z,77.69
2022-12-22T15:15:34.305Z,76.75
2022-12-22T15:18:00.769Z,76.92
2022-12-22T15:20:32.348Z,79.95
2022-12-22T15:23:01.818Z,79.31
2022-12-22T15:25:28.265Z,78.19
2022-12-22T15:27:54.744Z,77.98
2022-12-22T15:30:27.947Z,78.86
2022-12-22T15:32:55.504Z,79.34
2022-12-22T15:35:31.338Z,77.97
2022-12-22T15:37:58.228Z,77.86
2022-12-22T15:40:25.479Z,77.50
2022-12-22T15:42:52.098Z,77.45
2022-12-22T15:45:19.466Z,78.27
2022-12-22T15:47:50.314Z,78.06
2022-12-22T15:50:35.049Z,79.17
2022-12-22T15:53:05.413Z,78.65
2022-12-22T15:55:32.032Z,79.20
2022-12-22T15:57:59.137Z,79.83
2022-12-22T16:00:26.037Z,77.64
2022-12-22T16:02:52.757Z,79.35
2022-12-22T16:05:19.397Z,78.99
2022-12-22T16:07:45.910Z,78.08
2022-12-22T16:10:23.759Z,79.17
2022-12-22T16:12:55.475Z,78.54
2022-12-22T16:15:22.537Z,79.43
2022-12-22T16:17:51.701Z,77.78
2022-12-22T16:20:18.340Z,80.78
2022-12-22T16:22:45.094Z,78.90
2022-12-22T16:25:16.905Z,78.70
2022-12-22T16:27:43.820Z,81.66
2022-12-22T16:30:21.259Z,80.78
2022-12-22T16:32:47.947Z,80.83
2022-12-22T16:35:17.852Z,80.02
2022-12-22T16:37:45.040Z,80.96
2022-12-22T16:40:12.272Z,82.26
2022-12-22T16:45:27.389Z,81.38
2022-12-22T16:47:54.313Z,81.09
2022-12-22T16:50:22.581Z,80.69
2022-12-22T16:52:49.732Z,80.50
2022-12-22T16:55:20.978Z,80.18
2022-12-22T16:57:47.594Z,80.16
2022-12-22T17:00:17.948Z,79.87
2022-12-22T17:02:47.520Z,79.85
2022-12-22T17:05:27.005Z,81.30
2022-12-22T17:07:55.254Z,81.93
2022-12-22T17:10:22.849Z,81.06
2022-12-22T17:12:52.099Z,81.07
2022-12-22T17:15:21.455Z,81.66
2022-12-22T17:17:49.121Z,80.68
2022-12-22T17:20:17.128Z,77.75
2022-12-22T17:22:46.200Z,79.26
2022-12-22T17:25:25.039Z,80.05
2022-12-22T17:27:51.610Z,81.30
2022-12-22T17:30:23.239Z,81.93
2022-12-22T17:32:52.806Z,80.45
2022-12-22T17:35:21.271Z,79.51
2022-12-22T17:37:48.244Z,78.93
2022-12-22T17:40:30.813Z,81.17
2022-12-22T17:43:00.318Z,80.00
2022-12-22T17:45:26.930Z,82.39
2022-12-22T17:47:53.423Z,80.82
2022-12-22T17:50:21.426Z,78.52
2022-12-22T17:52:48.036Z,80.43
2022-12-22T17:56:07.196Z,80.36
2022-12-22T17:58:27.341Z,80.22
2022-12-22T18:00:53.807Z,80.21
2022-12-22T18:03:20.534Z,80.90
2022-12-22T18:05:48.136Z,80.92
2022-12-22T18:08:19.990Z,81.18
2022-12-22T18:10:47.258Z,79.07
2022-12-22T18:13:16.768Z,80.27
2022-12-22T18:15:43.363Z,80.37
2022-12-22T18:18:15.036Z,78.24
2022-12-22T18:20:42.271Z,80.13
2022-12-22T18:23:16.885Z,78.82
2022-12-22T18:25:43.421Z,79.57
2022-12-22T18:28:14.913Z,81.55
2022-12-22T18:30:41.726Z,78.78
2022-12-22T18:33:08.802Z,78.50
2022-12-22T18:35:37.728Z,79.51
2022-12-22T18:38:05.031Z,80.05
2022-12-22T18:40:37.217Z,78.81
2022-12-22T18:43:06.991Z,79.98
2022-12-22T18:45:33.574Z,81.28
2022-12-22T18:48:00.023Z,80.86
2022-12-22T18:50:29.003Z,80.74
2022-12-22T18:52:57.601Z,80.98
2022-12-22T18:55:27.584Z,79.39
2022-12-22T18:57:55.798Z,79.62
2022-12-22T19:00:25.715Z,79.17
2022-12-22T19:02:54.188Z,78.73
2022-12-22T19:05:31.551Z,79.79
2022-12-22T19:07:58.553Z,79.29
2022-12-22T19:10:38.095Z,78.18
2022-12-22T19:13:07.576Z,77.88
2022-12-22T19:15:36.484Z,78.24
2022-12-22T19:18:03.361Z,79.17
2022-12-22T19:20:29.791Z,81.11
2022-12-22T19:22:56.264Z,78.92
2022-12-22T19:25:28.634Z,77.50
2022-12-22T19:27:58.985Z,78.53
2022-12-22T19:30:27.256Z,80.08
2022-12-22T19:32:56.990Z,78.67
2022-12-22T19:35:24.550Z,79.71
2022-12-22T19:37:53.062Z,78.21
2022-12-22T19:40:21.916Z,77.81
2022-12-22T19:42:50.761Z,79.05
2022-12-22T19:45:22.143Z,80.23
2022-12-22T19:47:49.229Z,78.09
2022-12-22T19:50:25.031Z,78.11
2022-12-22T19:52:52.284Z,79.33
2022-12-22T19:55:19.340Z,78.44
2022-12-22T19:57:47.374Z,79.29
2022-12-22T20:00:26.248Z,79.75
2022-12-22T20:02:55.320Z,78.62
2022-12-22T20:05:24.982Z,79.17
2022-12-22T20:07:53.130Z,78.71
2022-12-22T20:10:20.345Z,79.12
2022-12-22T20:12:49.085Z,77.33
2022-12-22T20:15:19.550Z,77.88
2022-12-22T20:17:47.067Z,78.27
2022-12-22T20:20:21.449Z,78.32
2022-12-22T20:22:54.638Z,77.87
2022-12-22T20:25:26.781Z,78.78
2022-12-22T20:27:54.626Z,79.44
2022-12-22T20:30:28.854Z,79.58
2022-12-22T20:32:55.598Z,78.68
2022-12-22T20:35:23.082Z,79.51
2022-12-22T20:37:51.287Z,80.12
2022-12-22T20:40:24.723Z,79.56
2022-12-22T20:42:51.858Z,80.86
2022-12-22T20:45:21.083Z,79.56
2022-12-22T20:47:50.095Z,80.83
2022-12-22T20:50:22.475Z,80.05
2022-12-22T20:52:50.425Z,81.72
2022-12-22T20:55:22.793Z,80.80
2022-12-22T20:57:50.611Z,81.21
2022-12-22T21:00:17.312Z,80.64
2022-12-22T21:02:44.697Z,79.84
2022-12-22T21:05:12.943Z,78.64
2022-12-22T21:07:39.440Z,80.63
2022-12-22T21:10:06.807Z,80.83
2022-12-22T21:12:33.298Z,79.47
2022-12-22T21:15:00.297Z,78.80
2022-12-22T21:17:27.394Z,81.16
2022-12-22T21:19:53.913Z,79.72
2022-12-22T21:22:20.352Z,80.17
2022-12-22T21:24:46.827Z,78.30
2022-12-22T21:27:18.487Z,78.97
2022-12-22T21:29:45.042Z,78.84
2022-12-22T21:32:15.412Z,78.31
2022-12-22T21:34:42.614Z,79.26
2022-12-22T21:37:16.137Z,80.68
2022-12-22T21:39:44.778Z,81.41
2022-12-22T21:42:18.647Z,80.74
2022-12-22T21:44:45.808Z,81.03
2022-12-22T21:47:14.440Z,80.35
2022-12-22T21:49:41.683Z,81.55
2022-12-22T21:52:08.178Z,80.12
2022-12-22T21:54:34.656Z,79.97
2022-12-22T21:57:01.524Z,80.86
2022-12-22T21:59:28.536Z,81.37
2022-12-22T22:01:56.681Z,81.80
2022-12-22T22:04:24.376Z,82.09
2022-12-22T22:06:50.843Z,82.55
2022-12-22T22:09:17.313Z,82.31
2022-12-22T22:12:02.486Z,82.04
2022-12-22T22:14:28.954Z,79.97
2022-12-22T22:16:55.856Z,79.94
2022-12-22T22:19:22.399Z,79.93
2022-12-22T22:21:48.924Z,80.10
2022-12-22T22:24:15.381Z,81.09
2022-12-22T22:26:45.143Z,78.79
2022-12-22T22:29:11.711Z,79.79
2022-12-22T22:31:38.449Z,80.14
2022-12-22T22:34:05.173Z,78.48
2022-12-22T22:36:31.681Z,78.97
2022-12-22T22:38:58.170Z,77.86
2022-12-22T22:41:25.589Z,77.59
2022-12-22T22:43:55.114Z,78.96
2022-12-22T22:46:21.772Z,80.51
2022-12-22T22:48:48.424Z,79.39
2022-12-22T22:51:14.898Z,80.33
2022-12-22T22:53:41.388Z,78.61
2022-12-22T22:56:08.126Z,79.82
2022-12-22T22:58:36.044Z,79.89
2022-12-22T23:01:06.948Z,79.48
2022-12-22T23:03:34.290Z,78.51
2022-12-22T23:06:05.312Z,80.79
2022-12-22T23:08:33.772Z,80.69
2022-12-22T23:11:01.234Z,78.27
2022-12-22T23:13:28.811Z,78.87
2022-12-22T23:16:01.052Z,78.17
2022-12-22T23:18:28.240Z,79.09
2022-12-22T23:20:57.867Z,78.82
2022-12-22T23:23:24.527Z,78.80
2022-12-22T23:25:54.928Z,79.35
2022-12-22T23:28:21.369Z,79.23
2022-12-22T23:30:49.625Z,78.98
2022-12-22T23:33:17.145Z,78.86
2022-12-22T23:35:46.688Z,78.76
2022-12-22T23:38:13.940Z,77.94
2022-12-22T23:40:56.247Z,78.03
2022-12-22T23:43:22.801Z,79.34
2022-12-22T23:45:49.289Z,80.15
2022-12-22T23:48:15.869Z,78.44
2022-12-22T23:50:45.774Z,78.97
2022-12-22T23:53:12.257Z,79.44
2022-12-22T23:55:43.522Z,78.47
2022-12-22T23:58:10.066Z,79.07
